Grumpy J — WDF4332 — position and weather

sailwx.info

Track history (hours):
 
Tides and Currents Weather Stations Pressure Air Temp Water Temp Dewpoint Dewpoint Depression Visibility Wind Speed Wind Dir Waves Ship Positions

Grumpy J

Owner: Pacific Grumpy J. LLC, Charleston, OR. More information available from US FCC via Universal Licensing System and Coast Guard Vessel Documentation Center.

Last reported at 2018-Apr-18 07:37 UTC. Time now 2018-Apr-24 02:28 UTC.
Position N 46°13' W 124°23'.

MMSI: 367450577.

Date/timePositionNaut miles runAvg speedWind from/ knotsBaromVisibWave heightAir tempDewpointWater temp
2018-Apr-18 07:37N 46°13' W 124°23'1 8.8
2018-Apr-18 07:29N 46°13' W 124°21'6 9.2
2018-Apr-18 06:52N 46°13' W 124°13'3 9.1
2018-Apr-18 06:30N 46°14' W 124°09'4 8.6
2018-Apr-18 06:00N 46°16' W 124°03'4 8.5
2018-Apr-18 05:30N 46°13' W 123°58'4 7.5
2018-Apr-18 05:00N 46°10' W 123°55'0 0.0
2018-Apr-18 04:30N 46°10' W 123°55'0 0.0
2018-Apr-18 04:01N 46°10' W 123°55'0 0.0
2018-Apr-18 03:30N 46°10' W 123°55'0 0.0
2018-Apr-18 03:01N 46°10' W 123°55'0 0.0
2018-Apr-18 02:30N 46°10' W 123°55'0 0.0
2018-Apr-18 02:00N 46°10' W 123°55'0 0.0
2018-Apr-18 01:30N 46°10' W 123°55'0 0.0
2018-Apr-18 01:00N 46°10' W 123°55'0 0.0
2018-Apr-18 00:30N 46°10' W 123°55'0 0.0
2018-Apr-18 00:00N 46°10' W 123°55'0 0.0
2018-Apr-17 23:30N 46°10' W 123°55'0 0.0
2018-Apr-17 23:00N 46°10' W 123°55'0 0.0
2018-Apr-17 22:30N 46°10' W 123°55'0 0.0
2018-Apr-17 22:01N 46°10' W 123°55'0 0.0
2018-Apr-17 21:30N 46°10' W 123°55'0 0.1
2018-Apr-17 21:00N 46°10' W 123°55'0 0.0
2018-Apr-17 20:30N 46°10' W 123°55'0 0.0
2018-Apr-17 20:00N 46°10' W 123°55'0 0.0
2018-Apr-17 19:10N 46°10' W 123°55'0 0.0
2018-Apr-17 19:00N 46°10' W 123°55'0 0.0
2018-Apr-17 18:28N 46°10' W 123°55'0 0.0
2018-Apr-17 18:01N 46°10' W 123°55'0 0.0
2018-Apr-17 17:29N 46°10' W 123°55'0 0.0
2018-Apr-17 17:00N 46°10' W 123°55'0 0.0
2018-Apr-17 16:15N 46°10' W 123°55'0 0.0
2018-Apr-17 16:00N 46°10' W 123°55'0 0.0
2018-Apr-17 15:29N 46°10' W 123°55'0 0.0
2018-Apr-17 15:01N 46°10' W 123°55'0 0.0
2018-Apr-17 14:30N 46°10' W 123°55'0 0.0
2018-Apr-17 14:00N 46°10' W 123°55'0 0.0
2018-Apr-17 13:30N 46°10' W 123°55'0 0.1
2018-Apr-17 12:53N 46°10' W 123°55'0 0.1
2018-Apr-17 12:30N 46°10' W 123°55'0 0.0
2018-Apr-17 12:00N 46°10' W 123°55'0 0.0
2018-Apr-17 11:30N 46°10' W 123°55'0 0.0
2018-Apr-17 10:51N 46°10' W 123°55'0 0.0
2018-Apr-17 10:29N 46°10' W 123°55'0 0.0
2018-Apr-17 10:00N 46°10' W 123°55'0 0.0
2018-Apr-17 09:30N 46°10' W 123°55'0 0.0
2018-Apr-17 08:50N 46°10' W 123°55'0 0.0
2018-Apr-17 08:30N 46°10' W 123°55'0 0.0
2018-Apr-17 07:58N 46°10' W 123°55'0 0.0
2018-Apr-17 07:30N 46°10' W 123°55'0 0.0
2018-Apr-17 06:49N 46°10' W 123°55'0 0.0
2018-Apr-17 06:30N 46°10' W 123°55'0 0.0
2018-Apr-17 05:20N 46°10' W 123°55'0 0.0
2018-Apr-17 05:01N 46°10' W 123°55'0 0.0
2018-Apr-17 04:30N 46°10' W 123°55'0 0.0
2018-Apr-17 04:01N 46°10' W 123°55'0 0.0
2018-Apr-17 03:30N 46°10' W 123°55'0 0.0
2018-Apr-17 03:00N 46°10' W 123°55'0 0.0
2018-Apr-17 02:31N 46°10' W 123°55'0 0.0
2018-Apr-17 02:00N 46°10' W 123°55'0 0.0
2018-Apr-17 01:30N 46°10' W 123°55'0 0.0
2018-Apr-17 01:00N 46°10' W 123°55'0 0.0
2018-Apr-17 00:24N 46°10' W 123°55'0 0.0
2018-Apr-17 00:00N 46°10' W 123°55'0 0.0
2018-Apr-16 23:24N 46°10' W 123°55'0 0.0
2018-Apr-16 23:00N 46°10' W 123°55'0 0.0
2018-Apr-16 22:30N 46°10' W 123°55'0 0.0
2018-Apr-16 22:00N 46°10' W 123°55'0 0.0
2018-Apr-16 21:31N 46°10' W 123°55'0 0.0
2018-Apr-16 21:01N 46°10' W 123°55'0 0.0
2018-Apr-16 20:20N 46°10' W 123°55'0 0.0
2018-Apr-16 20:00N 46°10' W 123°55'0 0.0
2018-Apr-16 19:27N 46°10' W 123°55'0 0.0
2018-Apr-16 19:00N 46°10' W 123°55'0 0.0
2018-Apr-16 18:30N 46°10' W 123°55'0 0.0
2018-Apr-16 18:01N 46°10' W 123°55'4 7.1
2018-Apr-16 17:30N 46°13' W 123°58'4 7.7
2018-Apr-16 16:59N 46°15' W 124°02'4 5.9
2018-Apr-16 16:22N 46°14' W 124°07'3 5.8
2018-Apr-16 15:54N 46°12' W 124°11'2 5.9
2018-Apr-16 15:30N 46°12' W 124°14'3 6.2
2018-Apr-16 15:00N 46°11' W 124°18'2 5.0
2018-Apr-16 14:30N 46°11' W 124°22'3 5.2
2018-Apr-16 14:00N 46°11' W 124°26'2 4.3
2018-Apr-16 13:30N 46°11' W 124°29'2 3.8
2018-Apr-16 13:00N 46°11' W 124°31'2 3.7
2018-Apr-16 12:29N 46°11' W 124°34'1 2.9
2018-Apr-16 12:01N 46°12' W 124°36'1 1.2
2018-Apr-16 11:30N 46°12' W 124°35'1 2.3
2018-Apr-16 11:00N 46°12' W 124°33'0 0.4
2018-Apr-16 10:31N 46°12' W 124°34'1 2.5
2018-Apr-16 10:00N 46°12' W 124°35'2 3.9
2018-Apr-16 09:30N 46°12' W 124°33'1 1.8
2018-Apr-16 09:00N 46°13' W 124°31'3 6.0
2018-Apr-16 08:30N 46°13' W 124°27'3 5.3
2018-Apr-16 08:00N 46°13' W 124°23'4 7.5
2018-Apr-16 07:30N 46°13' W 124°18'4 7.6
2018-Apr-16 07:00N 46°13' W 124°12'4 8.3
2018-Apr-16 06:30N 46°14' W 124°07'4 7.2
2018-Apr-16 06:00N 46°15' W 124°02'4 7.4
2018-Apr-16 05:30N 46°13' W 123°58'4 7.1
2018-Apr-16 05:01N 46°10' W 123°55'0 0.6
2018-Apr-16 04:30N 46°10' W 123°55'0 0.0
2018-Apr-16 04:00N 46°10' W 123°55'0 0.0
2018-Apr-16 03:30N 46°10' W 123°55'0 0.0
2018-Apr-16 02:59N 46°10' W 123°55'0 0.0
2018-Apr-16 02:30N 46°10' W 123°55'0 0.0
2018-Apr-16 01:59N 46°10' W 123°55'0 0.0
2018-Apr-16 01:30N 46°10' W 123°55'0 0.0
2018-Apr-16 01:00N 46°10' W 123°55'0 0.0
2018-Apr-16 00:30N 46°10' W 123°55'0 0.0
2018-Apr-16 00:00N 46°10' W 123°55'0 0.0
2018-Apr-15 23:29N 46°10' W 123°55'0 0.0
2018-Apr-15 23:00N 46°10' W 123°55'0 0.0
2018-Apr-15 22:30N 46°10' W 123°55'0 0.0
2018-Apr-15 22:00N 46°10' W 123°55'0 0.0
2018-Apr-15 21:30N 46°10' W 123°55'0 0.0
2018-Apr-15 21:00N 46°10' W 123°55'0 0.0
2018-Apr-15 20:30N 46°10' W 123°55'0 0.0
2018-Apr-15 20:00N 46°10' W 123°55'0 0.0
2018-Apr-15 19:30N 46°10' W 123°55'0 0.0
2018-Apr-15 19:00N 46°10' W 123°55'0 0.0
2018-Apr-15 18:31N 46°10' W 123°55'0 0.0
2018-Apr-15 18:00N 46°10' W 123°55'0 0.0
2018-Apr-15 17:30N 46°10' W 123°55'0 0.0
2018-Apr-15 17:00N 46°10' W 123°55'0 0.0
2018-Apr-15 16:30N 46°10' W 123°55'0 0.0
2018-Apr-15 16:00N 46°10' W 123°55'0 0.0
2018-Apr-15 15:30N 46°10' W 123°55'0 0.0
2018-Apr-15 15:00N 46°10' W 123°55'0 0.0
2018-Apr-15 14:30N 46°10' W 123°55'0 0.0
2018-Apr-15 14:00N 46°10' W 123°55'0 0.0
2018-Apr-15 13:30N 46°10' W 123°55'0 0.0
2018-Apr-15 13:01N 46°10' W 123°55'0 0.0
2018-Apr-15 12:30N 46°10' W 123°55'0 0.0
2018-Apr-15 12:01N 46°10' W 123°55'0 0.0
2018-Apr-15 11:31N 46°10' W 123°55'0 0.0
2018-Apr-15 11:00N 46°10' W 123°55'0 0.0
2018-Apr-15 10:31N 46°10' W 123°55'0 0.0
2018-Apr-15 09:12N 46°10' W 123°55'0 0.0
2018-Apr-15 09:00N 46°10' W 123°55'0 0.0
2018-Apr-15 08:30N 46°10' W 123°55'0 0.0
2018-Apr-15 08:01N 46°10' W 123°55'0 0.0
2018-Apr-15 07:30N 46°10' W 123°55'0 0.0
2018-Apr-15 07:01N 46°10' W 123°55'0 0.0
2018-Apr-15 06:31N 46°10' W 123°55'0 0.0
2018-Apr-15 06:00N 46°10' W 123°55'0 0.0
2018-Apr-15 05:30N 46°10' W 123°55'0 0.0
2018-Apr-15 05:00N 46°10' W 123°55'0 0.0
2018-Apr-15 04:30N 46°10' W 123°55'0 0.0
2018-Apr-15 04:00N 46°10' W 123°55'0 0.0
2018-Apr-15 03:30N 46°10' W 123°55'0 0.0
2018-Apr-15 03:00N 46°10' W 123°55'0 0.0
2018-Apr-15 02:30N 46°10' W 123°55'0 0.0
2018-Apr-15 02:00N 46°10' W 123°55'0 0.0
2018-Apr-15 01:30N 46°10' W 123°55'0 0.0
2018-Apr-15 01:00N 46°10' W 123°55'0 0.0
2018-Apr-15 00:30N 46°10' W 123°55'0 0.0
2018-Apr-15 00:00N 46°10' W 123°55'0 0.0
2018-Apr-14 23:30N 46°10' W 123°55'0 0.0
2018-Apr-14 23:00N 46°10' W 123°55'0 0.0
2018-Apr-14 22:30N 46°10' W 123°55'0 0.0
2018-Apr-14 22:00N 46°10' W 123°55'0 0.0
2018-Apr-14 21:30N 46°10' W 123°55'0 0.0
2018-Apr-14 21:00N 46°10' W 123°55'0 0.0
2018-Apr-14 20:30N 46°10' W 123°55'0 0.0
2018-Apr-14 20:00N 46°10' W 123°55'0 0.0
2018-Apr-14 19:30N 46°10' W 123°55'0 0.0
2018-Apr-14 19:00N 46°10' W 123°55'0 0.0
2018-Apr-14 18:30N 46°10' W 123°55'0 0.0
2018-Apr-14 18:01N 46°10' W 123°55'0 0.0
2018-Apr-14 17:30N 46°10' W 123°55'0 0.0
2018-Apr-14 17:00N 46°10' W 123°55'0 0.2
2018-Apr-14 16:30N 46°10' W 123°55'0 0.0
2018-Apr-14 16:01N 46°10' W 123°55'0 0.0
2018-Apr-14 15:30N 46°10' W 123°55'0 0.0
2018-Apr-14 15:00N 46°10' W 123°55'0 0.2
2018-Apr-14 14:30N 46°10' W 123°55'0 0.0
2018-Apr-14 14:00N 46°10' W 123°55'0 0.1
2018-Apr-14 13:30N 46°10' W 123°55'0 0.0
2018-Apr-14 12:59N 46°10' W 123°55'0 0.0
2018-Apr-14 12:30N 46°10' W 123°55'0 0.0
2018-Apr-14 12:00N 46°10' W 123°55'0 0.0
2018-Apr-14 11:30N 46°10' W 123°55'0 0.0
2018-Apr-14 11:00N 46°10' W 123°55'0 0.0
2018-Apr-14 10:05N 46°10' W 123°55'0 0.0
2018-Apr-14 10:01N 46°10' W 123°55'0 0.0
2018-Apr-14 09:30N 46°10' W 123°55'0 0.0
2018-Apr-14 08:55N 46°10' W 123°55'0 0.0
2018-Apr-14 08:31N 46°10' W 123°55'0 0.0
2018-Apr-14 08:01N 46°10' W 123°55'0 0.0
2018-Apr-14 07:30N 46°10' W 123°55'0 0.0
2018-Apr-14 07:00N 46°10' W 123°55'0 0.0
2018-Apr-14 06:31N 46°10' W 123°55'0 0.0
2018-Apr-14 06:01N 46°10' W 123°55'0 0.0
2018-Apr-14 05:30N 46°10' W 123°55'0 0.0
2018-Apr-14 04:56N 46°10' W 123°55'0 0.0
2018-Apr-14 04:24N 46°10' W 123°55'0 0.0
2018-Apr-14 04:00N 46°10' W 123°55'0 0.0
2018-Apr-14 03:30N 46°10' W 123°55'0 0.0
2018-Apr-14 02:56N 46°10' W 123°55'0 0.0
2018-Apr-14 02:30N 46°10' W 123°55'0 0.0
2018-Apr-14 02:00N 46°10' W 123°55'0 0.0
2018-Apr-14 01:31N 46°10' W 123°55'0 0.0
2018-Apr-14 00:57N 46°10' W 123°55'0 0.0
2018-Apr-14 00:30N 46°10' W 123°55'0 0.0
2018-Apr-14 00:00N 46°10' W 123°55'0 0.0
2018-Apr-13 23:27N 46°10' W 123°55'0 0.0
2018-Apr-13 22:57N 46°10' W 123°55'0 0.0
2018-Apr-13 22:30N 46°10' W 123°55'0 0.0
2018-Apr-13 22:00N 46°10' W 123°55'0 0.0
2018-Apr-13 21:30N 46°10' W 123°55'0 0.0
2018-Apr-13 21:00N 46°10' W 123°55'0 0.0
2018-Apr-13 20:31N 46°10' W 123°55'0 0.0
2018-Apr-13 20:01N 46°10' W 123°55'0 0.0
2018-Apr-13 19:30N 46°10' W 123°55'0 0.0
2018-Apr-13 19:00N 46°10' W 123°55'0 0.0
2018-Apr-13 18:16N 46°10' W 123°55'0 0.0
2018-Apr-13 17:59N 46°10' W 123°55'0 0.0
2018-Apr-13 17:30N 46°10' W 123°55'0 0.0
2018-Apr-13 17:00N 46°10' W 123°55'0 0.0
2018-Apr-13 16:30N 46°10' W 123°55'0 0.0
2018-Apr-13 16:00N 46°10' W 123°55'0 0.0
2018-Apr-13 15:30N 46°10' W 123°55'0 0.0
2018-Apr-13 15:01N 46°10' W 123°55'0 0.0
2018-Apr-13 14:30N 46°10' W 123°55'0 0.0
2018-Apr-13 14:00N 46°10' W 123°55'0 0.0
2018-Apr-13 13:31N 46°10' W 123°55'0 0.0
2018-Apr-13 13:00N 46°10' W 123°55'0 0.0
2018-Apr-13 12:30N 46°10' W 123°55'0 0.0
2018-Apr-13 12:00N 46°10' W 123°55'0 0.0
2018-Apr-13 11:30N 46°10' W 123°55'0 0.0
2018-Apr-13 11:01N 46°10' W 123°55'0 0.0
2018-Apr-13 10:31N 46°10' W 123°55'0 0.0
2018-Apr-13 10:00N 46°10' W 123°55'0 0.0
2018-Apr-13 09:29N 46°10' W 123°55'0 0.0
2018-Apr-13 09:01N 46°10' W 123°55'0 0.0
2018-Apr-13 08:30N 46°10' W 123°55'0 0.0
2018-Apr-13 08:00N 46°10' W 123°55'0 0.0
2018-Apr-13 07:31N 46°10' W 123°55'0 0.0
2018-Apr-13 07:00N 46°10' W 123°55'0 0.0
2018-Apr-13 06:30N 46°10' W 123°55'0 0.0
2018-Apr-13 06:00N 46°10' W 123°55'0 0.0
2018-Apr-13 05:30N 46°10' W 123°55'0 0.0
2018-Apr-13 05:01N 46°10' W 123°55'0 0.0
2018-Apr-13 04:30N 46°10' W 123°55'0 0.0
2018-Apr-13 03:49N 46°10' W 123°55'0 0.0
2018-Apr-13 03:21N 46°10' W 123°55'0 0.0
2018-Apr-13 03:00N 46°10' W 123°55'0 0.0
2018-Apr-13 02:30N 46°10' W 123°55'0 0.0
2018-Apr-13 01:58N 46°10' W 123°55'0 0.0
2018-Apr-13 01:26N 46°10' W 123°55'0 0.0
2018-Apr-13 01:00N 46°10' W 123°55'0 0.0
2018-Apr-13 00:30N 46°10' W 123°55'0 0.0
2018-Apr-12 23:47N 46°10' W 123°55'0 0.0
2018-Apr-12 23:30N 46°10' W 123°55'0 0.0
2018-Apr-12 23:00N 46°10' W 123°55'0 0.0
2018-Apr-12 22:31N 46°10' W 123°55'0 0.0
2018-Apr-12 22:00N 46°10' W 123°55'0 0.0
2018-Apr-12 21:30N 46°10' W 123°55'0 0.0
2018-Apr-12 21:00N 46°10' W 123°55'0 0.0
2018-Apr-12 20:30N 46°10' W 123°55'0 0.0
2018-Apr-12 20:00N 46°10' W 123°55'0 0.0
2018-Apr-12 19:31N 46°10' W 123°55'0 0.0
2018-Apr-12 19:00N 46°10' W 123°55'0 0.0
2018-Apr-12 18:31N 46°10' W 123°55'0 0.0
2018-Apr-12 18:00N 46°10' W 123°55'0 0.0
2018-Apr-12 17:31N 46°10' W 123°55'0 0.0
2018-Apr-12 17:00N 46°10' W 123°55'0 0.0
2018-Apr-12 16:31N 46°10' W 123°55'0 0.0
2018-Apr-12 16:00N 46°10' W 123°55'0 0.0
2018-Apr-12 15:31N 46°10' W 123°55'0 0.0
2018-Apr-12 15:00N 46°10' W 123°55'0 0.0
2018-Apr-12 14:30N 46°10' W 123°55'0 0.0
2018-Apr-12 14:01N 46°10' W 123°55'0 0.0
2018-Apr-12 13:30N 46°10' W 123°55'0 0.0
2018-Apr-12 13:00N 46°10' W 123°55'0 0.0
2018-Apr-12 12:30N 46°10' W 123°55'0 0.0
2018-Apr-12 12:01N 46°10' W 123°55'0 0.0
2018-Apr-12 11:30N 46°10' W 123°55'0 0.0
2018-Apr-12 11:00N 46°10' W 123°55'0 0.0
2018-Apr-12 10:30N 46°10' W 123°55'0 0.0
2018-Apr-12 10:00N 46°10' W 123°55'0 0.0
2018-Apr-12 09:30N 46°10' W 123°55'0 0.0
2018-Apr-12 09:00N 46°10' W 123°55'0 0.0
2018-Apr-12 08:31N 46°10' W 123°55'0 0.0
2018-Apr-12 08:00N 46°10' W 123°55'0 0.0
2018-Apr-12 07:30N 46°10' W 123°55'0 0.0
2018-Apr-12 07:00N 46°10' W 123°55'0 0.0
2018-Apr-12 06:30N 46°10' W 123°55'0 0.0
2018-Apr-12 06:00N 46°10' W 123°55'0 0.0
2018-Apr-12 05:30N 46°10' W 123°55'0 0.0
2018-Apr-12 05:00N 46°10' W 123°55'0 0.0
2018-Apr-12 04:31N 46°10' W 123°55'0 0.0
2018-Apr-12 04:00N 46°10' W 123°55'0 0.0
2018-Apr-12 03:31N 46°10' W 123°55'0 0.0
2018-Apr-12 03:00N 46°10' W 123°55'0 0.0
2018-Apr-12 02:30N 46°10' W 123°55'0 0.0
2018-Apr-12 02:00N 46°10' W 123°55'0 0.0
2018-Apr-12 01:30N 46°10' W 123°55'0 0.0
2018-Apr-12 00:52N 46°10' W 123°55'0 0.0
2018-Apr-12 00:31N 46°10' W 123°55'0 0.0
2018-Apr-12 00:01N 46°10' W 123°55'0 0.0
2018-Apr-11 23:31N 46°10' W 123°55'0 0.0
2018-Apr-11 23:01N 46°10' W 123°55'0 0.0
2018-Apr-11 22:30N 46°10' W 123°55'0 0.0
2018-Apr-11 22:01N 46°10' W 123°55'0 0.0
2018-Apr-11 21:30N 46°10' W 123°55'0 0.0
2018-Apr-11 21:00N 46°10' W 123°55'0 0.0
2018-Apr-11 20:30N 46°10' W 123°55'0 0.0
2018-Apr-11 20:00N 46°10' W 123°55'0 0.0
2018-Apr-11 19:30N 46°10' W 123°55'0 0.0
2018-Apr-11 19:00N 46°10' W 123°55'0 0.0
2018-Apr-11 18:30N 46°10' W 123°55'0 0.0
2018-Apr-11 18:00N 46°10' W 123°55'0 0.0
2018-Apr-11 17:30N 46°10' W 123°55'0 0.0
2018-Apr-11 17:00N 46°10' W 123°55'0 0.0
2018-Apr-11 16:31N 46°10' W 123°55'0 0.0
2018-Apr-11 16:00N 46°10' W 123°55'0 0.0
2018-Apr-11 15:30N 46°10' W 123°55'0 0.0
2018-Apr-11 15:00N 46°10' W 123°55'0 0.0
2018-Apr-11 14:31N 46°10' W 123°55'0 0.0
2018-Apr-11 14:01N 46°10' W 123°55'0 0.0
2018-Apr-11 13:30N 46°10' W 123°55'0 0.0
2018-Apr-11 13:00N 46°10' W 123°55'0 0.0
2018-Apr-11 12:30N 46°10' W 123°55'0 0.0
2018-Apr-11 12:00N 46°10' W 123°55'0 0.0
2018-Apr-11 11:30N 46°10' W 123°55'0 0.0
2018-Apr-11 11:00N 46°10' W 123°55'0 0.0
2018-Apr-11 10:30N 46°10' W 123°55'0 0.0
2018-Apr-11 10:00N 46°10' W 123°55'0 0.0
2018-Apr-11 09:30N 46°10' W 123°55'0 0.0
2018-Apr-11 09:00N 46°10' W 123°55'0 0.0
2018-Apr-11 08:30N 46°10' W 123°55'0 0.0
2018-Apr-11 08:00N 46°10' W 123°55'0 0.0
2018-Apr-11 07:30N 46°10' W 123°55'0 0.0
2018-Apr-11 07:00N 46°10' W 123°55'0 0.0
2018-Apr-11 06:31N 46°10' W 123°55'0 0.0
2018-Apr-11 06:00N 46°10' W 123°55'0 0.0
2018-Apr-11 05:30N 46°10' W 123°55'0 0.0
2018-Apr-11 05:01N 46°10' W 123°55'0 0.0
2018-Apr-11 04:30N 46°10' W 123°55'0 0.0
2018-Apr-11 04:00N 46°10' W 123°55'0 0.0
2018-Apr-11 03:31N 46°10' W 123°55'0 0.0
2018-Apr-11 03:00N 46°10' W 123°55'0 0.0
2018-Apr-11 02:30N 46°10' W 123°55'0 0.0
2018-Apr-11 02:00N 46°10' W 123°55'0 0.0
2018-Apr-11 01:26N 46°10' W 123°55'0 0.0
2018-Apr-11 00:47N 46°10' W 123°55'0 0.0
2018-Apr-11 00:31N 46°10' W 123°55'0 0.0
2018-Apr-11 00:00N 46°10' W 123°55'0 0.0
2018-Apr-10 23:30N 46°10' W 123°55'0 0.0
2018-Apr-10 23:01N 46°10' W 123°55'0 0.0
2018-Apr-10 22:30N 46°10' W 123°55'0 0.0
2018-Apr-10 22:00N 46°10' W 123°55'0 0.0
2018-Apr-10 21:30N 46°10' W 123°55'0 0.0
2018-Apr-10 21:00N 46°10' W 123°55'0 0.0
2018-Apr-10 20:30N 46°10' W 123°55'0 0.0
2018-Apr-10 20:00N 46°10' W 123°55'0 0.0
2018-Apr-10 19:30N 46°10' W 123°55'0 0.0
2018-Apr-10 18:56N 46°10' W 123°55'2 5.1
2018-Apr-10 18:30N 46°12' W 123°56'4 7.1
2018-Apr-10 18:01N 46°15' W 123°60'3 5.8
2018-Apr-10 17:30N 46°16' W 124°04'3 6.8
2018-Apr-10 17:00N 46°14' W 124°08'4 7.6
2018-Apr-10 16:30N 46°13' W 124°13'4 8.1
2018-Apr-10 16:00N 46°13' W 124°19'4 8.4
2018-Apr-10 15:30N 46°13' W 124°25'2 4.2
2018-Apr-10 15:00N 46°13' W 124°28'2 3.7
2018-Apr-10 14:30N 46°12' W 124°31'3 5.4
2018-Apr-10 14:00N 46°12' W 124°35'2 3.6
2018-Apr-10 13:30N 46°13' W 124°37'0 0.3
2018-Apr-10 13:01N 46°13' W 124°37'2 4.0
2018-Apr-10 12:30N 46°12' W 124°34'1 1.0
2018-Apr-10 11:57N 46°12' W 124°35'2 5.5
2018-Apr-10 11:30N 46°11' W 124°38'1 2.2
2018-Apr-10 11:00N 46°12' W 124°37'0 0.5
2018-Apr-10 10:31N 46°12' W 124°37'2 3.1
2018-Apr-10 09:55N 46°12' W 124°35'1 3.6
2018-Apr-10 09:30N 46°12' W 124°32'4 7.2
2018-Apr-10 09:01N 46°13' W 124°38'2 3.4
2018-Apr-10 08:30N 46°12' W 124°35'4 7.7
2018-Apr-10 08:00N 46°13' W 124°30'5 9.6
2018-Apr-10 07:30N 46°13' W 124°23'4 7.7
2018-Apr-10 07:00N 46°13' W 124°17'5 9.2
2018-Apr-10 06:30N 46°13' W 124°11'5 9.7
2018-Apr-10 06:00N 46°16' W 124°04'5 9.6
2018-Apr-10 05:30N 46°14' W 123°58'4 7.3
2018-Apr-10 04:56N 46°10' W 123°55'0 0.0
2018-Apr-10 04:30N 46°10' W 123°55'0 0.0
2018-Apr-10 03:54N 46°10' W 123°55'0 0.0
2018-Apr-10 03:30N 46°10' W 123°55'0 0.0
2018-Apr-10 03:00N 46°10' W 123°55'0 0.0
2018-Apr-10 02:31N 46°10' W 123°55'0 0.0
2018-Apr-10 02:00N 46°10' W 123°55'0 0.0
2018-Apr-10 01:30N 46°10' W 123°55'0 0.0
2018-Apr-10 01:00N 46°10' W 123°55'0 0.0
2018-Apr-10 00:31N 46°10' W 123°55'0 0.0
2018-Apr-10 00:01N 46°10' W 123°55'0 0.0
2018-Apr-09 23:30N 46°10' W 123°55'0 0.0
2018-Apr-09 23:00N 46°10' W 123°55'0 0.0
2018-Apr-09 22:30N 46°10' W 123°55'0 0.0
2018-Apr-09 22:00N 46°10' W 123°55'0 0.0
2018-Apr-09 21:30N 46°10' W 123°55'0 0.0
2018-Apr-09 21:00N 46°10' W 123°55'0 0.0
2018-Apr-09 20:30N 46°10' W 123°55'0 0.0
2018-Apr-09 20:00N 46°10' W 123°55'0 0.0
2018-Apr-09 19:17N 46°10' W 123°55'0 0.0
2018-Apr-09 19:00N 46°10' W 123°55'0 0.0
2018-Apr-09 18:30N 46°10' W 123°55'0 0.0
2018-Apr-09 17:48N 46°10' W 123°55'0 0.0
2018-Apr-09 17:16N 46°10' W 123°55'0 0.0
2018-Apr-09 16:52N 46°10' W 123°55'0 0.0
2018-Apr-09 16:30N 46°10' W 123°55'0 0.0
2018-Apr-09 16:00N 46°10' W 123°55'0 0.0
2018-Apr-09 15:31N 46°10' W 123°55'0 0.0
2018-Apr-09 15:00N 46°10' W 123°55'0 0.0
2018-Apr-09 14:31N 46°10' W 123°55'0 0.0
2018-Apr-09 14:00N 46°10' W 123°55'0 0.0
2018-Apr-09 13:30N 46°10' W 123°55'0 0.0
2018-Apr-09 13:01N 46°10' W 123°55'0 0.0
2018-Apr-09 12:19N 46°10' W 123°55'0 0.0
2018-Apr-09 11:44N 46°10' W 123°55'0 0.0
2018-Apr-09 11:31N 46°10' W 123°55'0 0.0
2018-Apr-09 10:50N 46°10' W 123°55'0 0.0
2018-Apr-09 10:31N 46°10' W 123°55'0 0.0
2018-Apr-09 10:00N 46°10' W 123°55'0 0.0
2018-Apr-09 09:30N 46°10' W 123°55'0 0.0
2018-Apr-09 09:00N 46°10' W 123°55'0 0.0
2018-Apr-09 08:31N 46°10' W 123°55'0 0.0
2018-Apr-09 08:01N 46°10' W 123°55'0 0.0
2018-Apr-09 07:30N 46°10' W 123°55'0 0.0
2018-Apr-09 06:55N 46°10' W 123°55'0 0.0
2018-Apr-09 06:30N 46°10' W 123°55'0 0.0
2018-Apr-09 06:00N 46°10' W 123°55'0 0.0
2018-Apr-09 05:30N 46°10' W 123°55'0 0.0
2018-Apr-09 05:01N 46°10' W 123°55'0 0.0
2018-Apr-09 04:31N 46°10' W 123°55'0 0.0
2018-Apr-09 04:00N 46°10' W 123°55'0 0.0
2018-Apr-09 03:30N 46°10' W 123°55'0 0.0
2018-Apr-09 03:00N 46°10' W 123°55'0 0.0
2018-Apr-09 02:30N 46°10' W 123°55'0 0.0
2018-Apr-09 02:00N 46°10' W 123°55'0 0.0
2018-Apr-09 01:30N 46°10' W 123°55'0 0.0
2018-Apr-09 01:00N 46°10' W 123°55'0 0.0
2018-Apr-09 00:30N 46°10' W 123°55'0 0.0
2018-Apr-09 00:00N 46°10' W 123°55'0 0.0
2018-Apr-08 23:30N 46°10' W 123°55'0 0.0
2018-Apr-08 23:01N 46°10' W 123°55'0 0.0
2018-Apr-08 22:30N 46°10' W 123°55'0 0.0
2018-Apr-08 21:50N 46°10' W 123°55'0 0.0
2018-Apr-08 21:28N 46°10' W 123°55'0 0.0
2018-Apr-08 21:00N 46°10' W 123°55'0 0.0
2018-Apr-08 20:30N 46°10' W 123°55'0 0.0
2018-Apr-08 19:55N 46°10' W 123°55'0 0.0
2018-Apr-08 19:31N 46°10' W 123°55'0 0.0
2018-Apr-08 19:00N 46°10' W 123°55'0 0.0
2018-Apr-08 18:30N 46°10' W 123°55'0 0.0
2018-Apr-08 18:01N 46°10' W 123°55'0 0.0
2018-Apr-08 17:30N 46°10' W 123°55'0 0.0
2018-Apr-08 17:00N 46°10' W 123°55'0 0.0
2018-Apr-08 15:55N 46°10' W 123°55'0 0.1
2018-Apr-08 15:31N 46°10' W 123°55'0 0.0
2018-Apr-08 15:01N 46°10' W 123°55'0 0.1
2018-Apr-08 14:31N 46°10' W 123°55'0 0.0
2018-Apr-08 14:00N 46°10' W 123°55'0 0.0
2018-Apr-08 13:30N 46°10' W 123°55'0 0.0
2018-Apr-08 13:00N 46°10' W 123°55'0 0.0
2018-Apr-08 12:30N 46°10' W 123°55'0 0.0
2018-Apr-08 12:01N 46°10' W 123°55'0 0.0
2018-Apr-08 11:30N 46°10' W 123°55'0 0.0
2018-Apr-08 11:01N 46°10' W 123°55'0 0.0
2018-Apr-08 10:30N 46°10' W 123°55'0 0.0
2018-Apr-08 10:00N 46°10' W 123°55'0 0.0
2018-Apr-08 09:30N 46°10' W 123°55'0 0.0
2018-Apr-08 09:00N 46°10' W 123°55'0 0.0
2018-Apr-08 08:30N 46°10' W 123°55'0 0.0
2018-Apr-08 08:00N 46°10' W 123°55'  
Track history (hours):
 
Tides and Currents Weather Stations Pressure Air Temp Water Temp Dewpoint Dewpoint Depression Visibility Wind Speed Wind Dir Waves Ship Positions

Grumpy J

Owner: Pacific Grumpy J. LLC, Charleston, OR. More information available from US FCC via Universal Licensing System and Coast Guard Vessel Documentation Center.

Last reported at 2018-Apr-18 07:37 UTC. Time now 2018-Apr-24 02:28 UTC.
Position N 46°13' W 124°23'.

MMSI: 367450577.

Date/timePositionNaut miles runAvg speedWind from/ knotsBaromVisibWave heightAir tempDewpointWater temp
2018-Apr-18 07:37N 46°13' W 124°23'1 8.8
2018-Apr-18 07:29N 46°13' W 124°21'6 9.2
2018-Apr-18 06:52N 46°13' W 124°13'3 9.1
2018-Apr-18 06:30N 46°14' W 124°09'4 8.6
2018-Apr-18 06:00N 46°16' W 124°03'4 8.5
2018-Apr-18 05:30N 46°13' W 123°58'4 7.5
2018-Apr-18 05:00N 46°10' W 123°55'0 0.0
2018-Apr-18 04:30N 46°10' W 123°55'0 0.0
2018-Apr-18 04:01N 46°10' W 123°55'0 0.0
2018-Apr-18 03:30N 46°10' W 123°55'0 0.0
2018-Apr-18 03:01N 46°10' W 123°55'0 0.0
2018-Apr-18 02:30N 46°10' W 123°55'0 0.0
2018-Apr-18 02:00N 46°10' W 123°55'0 0.0
2018-Apr-18 01:30N 46°10' W 123°55'0 0.0
2018-Apr-18 01:00N 46°10' W 123°55'0 0.0
2018-Apr-18 00:30N 46°10' W 123°55'0 0.0
2018-Apr-18 00:00N 46°10' W 123°55'0 0.0
2018-Apr-17 23:30N 46°10' W 123°55'0 0.0
2018-Apr-17 23:00N 46°10' W 123°55'0 0.0
2018-Apr-17 22:30N 46°10' W 123°55'0 0.0
2018-Apr-17 22:01N 46°10' W 123°55'0 0.0
2018-Apr-17 21:30N 46°10' W 123°55'0 0.1
2018-Apr-17 21:00N 46°10' W 123°55'0 0.0
2018-Apr-17 20:30N 46°10' W 123°55'0 0.0
2018-Apr-17 20:00N 46°10' W 123°55'0 0.0
2018-Apr-17 19:10N 46°10' W 123°55'0 0.0
2018-Apr-17 19:00N 46°10' W 123°55'0 0.0
2018-Apr-17 18:28N 46°10' W 123°55'0 0.0
2018-Apr-17 18:01N 46°10' W 123°55'0 0.0
2018-Apr-17 17:29N 46°10' W 123°55'0 0.0
2018-Apr-17 17:00N 46°10' W 123°55'0 0.0
2018-Apr-17 16:15N 46°10' W 123°55'0 0.0
2018-Apr-17 16:00N 46°10' W 123°55'0 0.0
2018-Apr-17 15:29N 46°10' W 123°55'0 0.0
2018-Apr-17 15:01N 46°10' W 123°55'0 0.0
2018-Apr-17 14:30N 46°10' W 123°55'0 0.0
2018-Apr-17 14:00N 46°10' W 123°55'0 0.0
2018-Apr-17 13:30N 46°10' W 123°55'0 0.1
2018-Apr-17 12:53N 46°10' W 123°55'0 0.1
2018-Apr-17 12:30N 46°10' W 123°55'0 0.0
2018-Apr-17 12:00N 46°10' W 123°55'0 0.0
2018-Apr-17 11:30N 46°10' W 123°55'0 0.0
2018-Apr-17 10:51N 46°10' W 123°55'0 0.0
2018-Apr-17 10:29N 46°10' W 123°55'0 0.0
2018-Apr-17 10:00N 46°10' W 123°55'0 0.0
2018-Apr-17 09:30N 46°10' W 123°55'0 0.0
2018-Apr-17 08:50N 46°10' W 123°55'0 0.0
2018-Apr-17 08:30N 46°10' W 123°55'0 0.0
2018-Apr-17 07:58N 46°10' W 123°55'0 0.0
2018-Apr-17 07:30N 46°10' W 123°55'0 0.0
2018-Apr-17 06:49N 46°10' W 123°55'0 0.0
2018-Apr-17 06:30N 46°10' W 123°55'0 0.0
2018-Apr-17 05:20N 46°10' W 123°55'0 0.0
2018-Apr-17 05:01N 46°10' W 123°55'0 0.0
2018-Apr-17 04:30N 46°10' W 123°55'0 0.0
2018-Apr-17 04:01N 46°10' W 123°55'0 0.0
2018-Apr-17 03:30N 46°10' W 123°55'0 0.0
2018-Apr-17 03:00N 46°10' W 123°55'0 0.0
2018-Apr-17 02:31N 46°10' W 123°55'0 0.0
2018-Apr-17 02:00N 46°10' W 123°55'0 0.0
2018-Apr-17 01:30N 46°10' W 123°55'0 0.0
2018-Apr-17 01:00N 46°10' W 123°55'0 0.0
2018-Apr-17 00:24N 46°10' W 123°55'0 0.0
2018-Apr-17 00:00N 46°10' W 123°55'0 0.0
2018-Apr-16 23:24N 46°10' W 123°55'0 0.0
2018-Apr-16 23:00N 46°10' W 123°55'0 0.0
2018-Apr-16 22:30N 46°10' W 123°55'0 0.0
2018-Apr-16 22:00N 46°10' W 123°55'0 0.0
2018-Apr-16 21:31N 46°10' W 123°55'0 0.0
2018-Apr-16 21:01N 46°10' W 123°55'0 0.0
2018-Apr-16 20:20N 46°10' W 123°55'0 0.0
2018-Apr-16 20:00N 46°10' W 123°55'0 0.0
2018-Apr-16 19:27N 46°10' W 123°55'0 0.0
2018-Apr-16 19:00N 46°10' W 123°55'0 0.0
2018-Apr-16 18:30N 46°10' W 123°55'0 0.0
2018-Apr-16 18:01N 46°10' W 123°55'4 7.1
2018-Apr-16 17:30N 46°13' W 123°58'4 7.7
2018-Apr-16 16:59N 46°15' W 124°02'4 5.9
2018-Apr-16 16:22N 46°14' W 124°07'3 5.8
2018-Apr-16 15:54N 46°12' W 124°11'2 5.9
2018-Apr-16 15:30N 46°12' W 124°14'3 6.2
2018-Apr-16 15:00N 46°11' W 124°18'2 5.0
2018-Apr-16 14:30N 46°11' W 124°22'3 5.2
2018-Apr-16 14:00N 46°11' W 124°26'2 4.3
2018-Apr-16 13:30N 46°11' W 124°29'2 3.8
2018-Apr-16 13:00N 46°11' W 124°31'2 3.7
2018-Apr-16 12:29N 46°11' W 124°34'1 2.9
2018-Apr-16 12:01N 46°12' W 124°36'1 1.2
2018-Apr-16 11:30N 46°12' W 124°35'1 2.3
2018-Apr-16 11:00N 46°12' W 124°33'0 0.4
2018-Apr-16 10:31N 46°12' W 124°34'1 2.5
2018-Apr-16 10:00N 46°12' W 124°35'2 3.9
2018-Apr-16 09:30N 46°12' W 124°33'1 1.8
2018-Apr-16 09:00N 46°13' W 124°31'3 6.0
2018-Apr-16 08:30N 46°13' W 124°27'3 5.3
2018-Apr-16 08:00N 46°13' W 124°23'4 7.5
2018-Apr-16 07:30N 46°13' W 124°18'4 7.6
2018-Apr-16 07:00N 46°13' W 124°12'4 8.3
2018-Apr-16 06:30N 46°14' W 124°07'4 7.2
2018-Apr-16 06:00N 46°15' W 124°02'4 7.4
2018-Apr-16 05:30N 46°13' W 123°58'4 7.1
2018-Apr-16 05:01N 46°10' W 123°55'0 0.6
2018-Apr-16 04:30N 46°10' W 123°55'0 0.0
2018-Apr-16 04:00N 46°10' W 123°55'0 0.0
2018-Apr-16 03:30N 46°10' W 123°55'0 0.0
2018-Apr-16 02:59N 46°10' W 123°55'0 0.0
2018-Apr-16 02:30N 46°10' W 123°55'0 0.0
2018-Apr-16 01:59N 46°10' W 123°55'0 0.0
2018-Apr-16 01:30N 46°10' W 123°55'0 0.0
2018-Apr-16 01:00N 46°10' W 123°55'0 0.0
2018-Apr-16 00:30N 46°10' W 123°55'0 0.0
2018-Apr-16 00:00N 46°10' W 123°55'0 0.0
2018-Apr-15 23:29N 46°10' W 123°55'0 0.0
2018-Apr-15 23:00N 46°10' W 123°55'0 0.0
2018-Apr-15 22:30N 46°10' W 123°55'0 0.0
2018-Apr-15 22:00N 46°10' W 123°55'0 0.0
2018-Apr-15 21:30N 46°10' W 123°55'0 0.0
2018-Apr-15 21:00N 46°10' W 123°55'0 0.0
2018-Apr-15 20:30N 46°10' W 123°55'0 0.0
2018-Apr-15 20:00N 46°10' W 123°55'0 0.0
2018-Apr-15 19:30N 46°10' W 123°55'0 0.0
2018-Apr-15 19:00N 46°10' W 123°55'0 0.0
2018-Apr-15 18:31N 46°10' W 123°55'0 0.0
2018-Apr-15 18:00N 46°10' W 123°55'0 0.0
2018-Apr-15 17:30N 46°10' W 123°55'0 0.0
2018-Apr-15 17:00N 46°10' W 123°55'0 0.0
2018-Apr-15 16:30N 46°10' W 123°55'0 0.0
2018-Apr-15 16:00N 46°10' W 123°55'0 0.0
2018-Apr-15 15:30N 46°10' W 123°55'0 0.0
2018-Apr-15 15:00N 46°10' W 123°55'0 0.0
2018-Apr-15 14:30N 46°10' W 123°55'0 0.0
2018-Apr-15 14:00N 46°10' W 123°55'0 0.0
2018-Apr-15 13:30N 46°10' W 123°55'0 0.0
2018-Apr-15 13:01N 46°10' W 123°55'0 0.0
2018-Apr-15 12:30N 46°10' W 123°55'0 0.0
2018-Apr-15 12:01N 46°10' W 123°55'0 0.0
2018-Apr-15 11:31N 46°10' W 123°55'0 0.0
2018-Apr-15 11:00N 46°10' W 123°55'0 0.0
2018-Apr-15 10:31N 46°10' W 123°55'0 0.0
2018-Apr-15 09:12N 46°10' W 123°55'0 0.0
2018-Apr-15 09:00N 46°10' W 123°55'0 0.0
2018-Apr-15 08:30N 46°10' W 123°55'0 0.0
2018-Apr-15 08:01N 46°10' W 123°55'0 0.0
2018-Apr-15 07:30N 46°10' W 123°55'0 0.0
2018-Apr-15 07:01N 46°10' W 123°55'0 0.0
2018-Apr-15 06:31N 46°10' W 123°55'0 0.0
2018-Apr-15 06:00N 46°10' W 123°55'0 0.0
2018-Apr-15 05:30N 46°10' W 123°55'0 0.0
2018-Apr-15 05:00N 46°10' W 123°55'0 0.0
2018-Apr-15 04:30N 46°10' W 123°55'0 0.0
2018-Apr-15 04:00N 46°10' W 123°55'0 0.0
2018-Apr-15 03:30N 46°10' W 123°55'0 0.0
2018-Apr-15 03:00N 46°10' W 123°55'0 0.0
2018-Apr-15 02:30N 46°10' W 123°55'0 0.0
2018-Apr-15 02:00N 46°10' W 123°55'0 0.0
2018-Apr-15 01:30N 46°10' W 123°55'0 0.0
2018-Apr-15 01:00N 46°10' W 123°55'0 0.0
2018-Apr-15 00:30N 46°10' W 123°55'0 0.0
2018-Apr-15 00:00N 46°10' W 123°55'0 0.0
2018-Apr-14 23:30N 46°10' W 123°55'0 0.0
2018-Apr-14 23:00N 46°10' W 123°55'0 0.0
2018-Apr-14 22:30N 46°10' W 123°55'0 0.0
2018-Apr-14 22:00N 46°10' W 123°55'0 0.0
2018-Apr-14 21:30N 46°10' W 123°55'0 0.0
2018-Apr-14 21:00N 46°10' W 123°55'0 0.0
2018-Apr-14 20:30N 46°10' W 123°55'0 0.0
2018-Apr-14 20:00N 46°10' W 123°55'0 0.0
2018-Apr-14 19:30N 46°10' W 123°55'0 0.0
2018-Apr-14 19:00N 46°10' W 123°55'0 0.0
2018-Apr-14 18:30N 46°10' W 123°55'0 0.0
2018-Apr-14 18:01N 46°10' W 123°55'0 0.0
2018-Apr-14 17:30N 46°10' W 123°55'0 0.0
2018-Apr-14 17:00N 46°10' W 123°55'0 0.2
2018-Apr-14 16:30N 46°10' W 123°55'0 0.0
2018-Apr-14 16:01N 46°10' W 123°55'0 0.0
2018-Apr-14 15:30N 46°10' W 123°55'0 0.0
2018-Apr-14 15:00N 46°10' W 123°55'0 0.2
2018-Apr-14 14:30N 46°10' W 123°55'0 0.0
2018-Apr-14 14:00N 46°10' W 123°55'0 0.1
2018-Apr-14 13:30N 46°10' W 123°55'0 0.0
2018-Apr-14 12:59N 46°10' W 123°55'0 0.0
2018-Apr-14 12:30N 46°10' W 123°55'0 0.0
2018-Apr-14 12:00N 46°10' W 123°55'0 0.0
2018-Apr-14 11:30N 46°10' W 123°55'0 0.0
2018-Apr-14 11:00N 46°10' W 123°55'0 0.0
2018-Apr-14 10:05N 46°10' W 123°55'0 0.0
2018-Apr-14 10:01N 46°10' W 123°55'0 0.0
2018-Apr-14 09:30N 46°10' W 123°55'0 0.0
2018-Apr-14 08:55N 46°10' W 123°55'0 0.0
2018-Apr-14 08:31N 46°10' W 123°55'0 0.0
2018-Apr-14 08:01N 46°10' W 123°55'0 0.0
2018-Apr-14 07:30N 46°10' W 123°55'0 0.0
2018-Apr-14 07:00N 46°10' W 123°55'0 0.0
2018-Apr-14 06:31N 46°10' W 123°55'0 0.0
2018-Apr-14 06:01N 46°10' W 123°55'0 0.0
2018-Apr-14 05:30N 46°10' W 123°55'0 0.0
2018-Apr-14 04:56N 46°10' W 123°55'0 0.0
2018-Apr-14 04:24N 46°10' W 123°55'0 0.0
2018-Apr-14 04:00N 46°10' W 123°55'0 0.0
2018-Apr-14 03:30N 46°10' W 123°55'0 0.0
2018-Apr-14 02:56N 46°10' W 123°55'0 0.0
2018-Apr-14 02:30N 46°10' W 123°55'0 0.0
2018-Apr-14 02:00N 46°10' W 123°55'0 0.0
2018-Apr-14 01:31N 46°10' W 123°55'0 0.0
2018-Apr-14 00:57N 46°10' W 123°55'0 0.0
2018-Apr-14 00:30N 46°10' W 123°55'0 0.0
2018-Apr-14 00:00N 46°10' W 123°55'0 0.0
2018-Apr-13 23:27N 46°10' W 123°55'0 0.0
2018-Apr-13 22:57N 46°10' W 123°55'0 0.0
2018-Apr-13 22:30N 46°10' W 123°55'0 0.0
2018-Apr-13 22:00N 46°10' W 123°55'0 0.0
2018-Apr-13 21:30N 46°10' W 123°55'0 0.0
2018-Apr-13 21:00N 46°10' W 123°55'0 0.0
2018-Apr-13 20:31N 46°10' W 123°55'0 0.0
2018-Apr-13 20:01N 46°10' W 123°55'0 0.0
2018-Apr-13 19:30N 46°10' W 123°55'0 0.0
2018-Apr-13 19:00N 46°10' W 123°55'0 0.0
2018-Apr-13 18:16N 46°10' W 123°55'0 0.0
2018-Apr-13 17:59N 46°10' W 123°55'0 0.0
2018-Apr-13 17:30N 46°10' W 123°55'0 0.0
2018-Apr-13 17:00N 46°10' W 123°55'0 0.0
2018-Apr-13 16:30N 46°10' W 123°55'0 0.0
2018-Apr-13 16:00N 46°10' W 123°55'0 0.0
2018-Apr-13 15:30N 46°10' W 123°55'0 0.0
2018-Apr-13 15:01N 46°10' W 123°55'0 0.0
2018-Apr-13 14:30N 46°10' W 123°55'0 0.0
2018-Apr-13 14:00N 46°10' W 123°55'0 0.0
2018-Apr-13 13:31N 46°10' W 123°55'0 0.0
2018-Apr-13 13:00N 46°10' W 123°55'0 0.0
2018-Apr-13 12:30N 46°10' W 123°55'0 0.0
2018-Apr-13 12:00N 46°10' W 123°55'0 0.0
2018-Apr-13 11:30N 46°10' W 123°55'0 0.0
2018-Apr-13 11:01N 46°10' W 123°55'0 0.0
2018-Apr-13 10:31N 46°10' W 123°55'0 0.0
2018-Apr-13 10:00N 46°10' W 123°55'0 0.0
2018-Apr-13 09:29N 46°10' W 123°55'0 0.0
2018-Apr-13 09:01N 46°10' W 123°55'0 0.0
2018-Apr-13 08:30N 46°10' W 123°55'0 0.0
2018-Apr-13 08:00N 46°10' W 123°55'0 0.0
2018-Apr-13 07:31N 46°10' W 123°55'0 0.0
2018-Apr-13 07:00N 46°10' W 123°55'0 0.0
2018-Apr-13 06:30N 46°10' W 123°55'0 0.0
2018-Apr-13 06:00N 46°10' W 123°55'0 0.0
2018-Apr-13 05:30N 46°10' W 123°55'0 0.0
2018-Apr-13 05:01N 46°10' W 123°55'0 0.0
2018-Apr-13 04:30N 46°10' W 123°55'0 0.0
2018-Apr-13 03:49N 46°10' W 123°55'0 0.0
2018-Apr-13 03:21N 46°10' W 123°55'0 0.0
2018-Apr-13 03:00N 46°10' W 123°55'0 0.0
2018-Apr-13 02:30N 46°10' W 123°55'0 0.0
2018-Apr-13 01:58N 46°10' W 123°55'0 0.0
2018-Apr-13 01:26N 46°10' W 123°55'0 0.0
2018-Apr-13 01:00N 46°10' W 123°55'0 0.0
2018-Apr-13 00:30N 46°10' W 123°55'0 0.0
2018-Apr-12 23:47N 46°10' W 123°55'0 0.0
2018-Apr-12 23:30N 46°10' W 123°55'0 0.0
2018-Apr-12 23:00N 46°10' W 123°55'0 0.0
2018-Apr-12 22:31N 46°10' W 123°55'0 0.0
2018-Apr-12 22:00N 46°10' W 123°55'0 0.0
2018-Apr-12 21:30N 46°10' W 123°55'0 0.0
2018-Apr-12 21:00N 46°10' W 123°55'0 0.0
2018-Apr-12 20:30N 46°10' W 123°55'0 0.0
2018-Apr-12 20:00N 46°10' W 123°55'0 0.0
2018-Apr-12 19:31N 46°10' W 123°55'0 0.0
2018-Apr-12 19:00N 46°10' W 123°55'0 0.0
2018-Apr-12 18:31N 46°10' W 123°55'0 0.0
2018-Apr-12 18:00N 46°10' W 123°55'0 0.0
2018-Apr-12 17:31N 46°10' W 123°55'0 0.0
2018-Apr-12 17:00N 46°10' W 123°55'0 0.0
2018-Apr-12 16:31N 46°10' W 123°55'0 0.0
2018-Apr-12 16:00N 46°10' W 123°55'0 0.0
2018-Apr-12 15:31N 46°10' W 123°55'0 0.0
2018-Apr-12 15:00N 46°10' W 123°55'0 0.0
2018-Apr-12 14:30N 46°10' W 123°55'0 0.0
2018-Apr-12 14:01N 46°10' W 123°55'0 0.0
2018-Apr-12 13:30N 46°10' W 123°55'0 0.0
2018-Apr-12 13:00N 46°10' W 123°55'0 0.0
2018-Apr-12 12:30N 46°10' W 123°55'0 0.0
2018-Apr-12 12:01N 46°10' W 123°55'0 0.0
2018-Apr-12 11:30N 46°10' W 123°55'0 0.0
2018-Apr-12 11:00N 46°10' W 123°55'0 0.0
2018-Apr-12 10:30N 46°10' W 123°55'0 0.0
2018-Apr-12 10:00N 46°10' W 123°55'0 0.0
2018-Apr-12 09:30N 46°10' W 123°55'0 0.0
2018-Apr-12 09:00N 46°10' W 123°55'0 0.0
2018-Apr-12 08:31N 46°10' W 123°55'0 0.0
2018-Apr-12 08:00N 46°10' W 123°55'0 0.0
2018-Apr-12 07:30N 46°10' W 123°55'0 0.0
2018-Apr-12 07:00N 46°10' W 123°55'0 0.0
2018-Apr-12 06:30N 46°10' W 123°55'0 0.0
2018-Apr-12 06:00N 46°10' W 123°55'0 0.0
2018-Apr-12 05:30N 46°10' W 123°55'0 0.0
2018-Apr-12 05:00N 46°10' W 123°55'0 0.0
2018-Apr-12 04:31N 46°10' W 123°55'0 0.0
2018-Apr-12 04:00N 46°10' W 123°55'0 0.0
2018-Apr-12 03:31N 46°10' W 123°55'0 0.0
2018-Apr-12 03:00N 46°10' W 123°55'0 0.0
2018-Apr-12 02:30N 46°10' W 123°55'0 0.0
2018-Apr-12 02:00N 46°10' W 123°55'0 0.0
2018-Apr-12 01:30N 46°10' W 123°55'0 0.0
2018-Apr-12 00:52N 46°10' W 123°55'0 0.0
2018-Apr-12 00:31N 46°10' W 123°55'0 0.0
2018-Apr-12 00:01N 46°10' W 123°55'0 0.0
2018-Apr-11 23:31N 46°10' W 123°55'0 0.0
2018-Apr-11 23:01N 46°10' W 123°55'0 0.0
2018-Apr-11 22:30N 46°10' W 123°55'0 0.0
2018-Apr-11 22:01N 46°10' W 123°55'0 0.0
2018-Apr-11 21:30N 46°10' W 123°55'0 0.0
2018-Apr-11 21:00N 46°10' W 123°55'0 0.0
2018-Apr-11 20:30N 46°10' W 123°55'0 0.0
2018-Apr-11 20:00N 46°10' W 123°55'0 0.0
2018-Apr-11 19:30N 46°10' W 123°55'0 0.0
2018-Apr-11 19:00N 46°10' W 123°55'0 0.0
2018-Apr-11 18:30N 46°10' W 123°55'0 0.0
2018-Apr-11 18:00N 46°10' W 123°55'0 0.0
2018-Apr-11 17:30N 46°10' W 123°55'0 0.0
2018-Apr-11 17:00N 46°10' W 123°55'0 0.0
2018-Apr-11 16:31N 46°10' W 123°55'0 0.0
2018-Apr-11 16:00N 46°10' W 123°55'0 0.0
2018-Apr-11 15:30N 46°10' W 123°55'0 0.0
2018-Apr-11 15:00N 46°10' W 123°55'0 0.0
2018-Apr-11 14:31N 46°10' W 123°55'0 0.0
2018-Apr-11 14:01N 46°10' W 123°55'0 0.0
2018-Apr-11 13:30N 46°10' W 123°55'0 0.0
2018-Apr-11 13:00N 46°10' W 123°55'0 0.0
2018-Apr-11 12:30N 46°10' W 123°55'0 0.0
2018-Apr-11 12:00N 46°10' W 123°55'0 0.0
2018-Apr-11 11:30N 46°10' W 123°55'0 0.0
2018-Apr-11 11:00N 46°10' W 123°55'0 0.0
2018-Apr-11 10:30N 46°10' W 123°55'0 0.0
2018-Apr-11 10:00N 46°10' W 123°55'0 0.0
2018-Apr-11 09:30N 46°10' W 123°55'0 0.0
2018-Apr-11 09:00N 46°10' W 123°55'0 0.0
2018-Apr-11 08:30N 46°10' W 123°55'0 0.0
2018-Apr-11 08:00N 46°10' W 123°55'0 0.0
2018-Apr-11 07:30N 46°10' W 123°55'0 0.0
2018-Apr-11 07:00N 46°10' W 123°55'0 0.0
2018-Apr-11 06:31N 46°10' W 123°55'0 0.0
2018-Apr-11 06:00N 46°10' W 123°55'0 0.0
2018-Apr-11 05:30N 46°10' W 123°55'0 0.0
2018-Apr-11 05:01N 46°10' W 123°55'0 0.0
2018-Apr-11 04:30N 46°10' W 123°55'0 0.0
2018-Apr-11 04:00N 46°10' W 123°55'0 0.0
2018-Apr-11 03:31N 46°10' W 123°55'0 0.0
2018-Apr-11 03:00N 46°10' W 123°55'0 0.0
2018-Apr-11 02:30N 46°10' W 123°55'0 0.0
2018-Apr-11 02:00N 46°10' W 123°55'0 0.0
2018-Apr-11 01:26N 46°10' W 123°55'0 0.0
2018-Apr-11 00:47N 46°10' W 123°55'0 0.0
2018-Apr-11 00:31N 46°10' W 123°55'0 0.0
2018-Apr-11 00:00N 46°10' W 123°55'0 0.0
2018-Apr-10 23:30N 46°10' W 123°55'0 0.0
2018-Apr-10 23:01N 46°10' W 123°55'0 0.0
2018-Apr-10 22:30N 46°10' W 123°55'0 0.0
2018-Apr-10 22:00N 46°10' W 123°55'0 0.0
2018-Apr-10 21:30N 46°10' W 123°55'0 0.0
2018-Apr-10 21:00N 46°10' W 123°55'0 0.0
2018-Apr-10 20:30N 46°10' W 123°55'0 0.0
2018-Apr-10 20:00N 46°10' W 123°55'0 0.0
2018-Apr-10 19:30N 46°10' W 123°55'0 0.0
2018-Apr-10 18:56N 46°10' W 123°55'2 5.1
2018-Apr-10 18:30N 46°12' W 123°56'4 7.1
2018-Apr-10 18:01N 46°15' W 123°60'3 5.8
2018-Apr-10 17:30N 46°16' W 124°04'3 6.8
2018-Apr-10 17:00N 46°14' W 124°08'4 7.6
2018-Apr-10 16:30N 46°13' W 124°13'4 8.1
2018-Apr-10 16:00N 46°13' W 124°19'4 8.4
2018-Apr-10 15:30N 46°13' W 124°25'2 4.2
2018-Apr-10 15:00N 46°13' W 124°28'2 3.7
2018-Apr-10 14:30N 46°12' W 124°31'3 5.4
2018-Apr-10 14:00N 46°12' W 124°35'2 3.6
2018-Apr-10 13:30N 46°13' W 124°37'0 0.3
2018-Apr-10 13:01N 46°13' W 124°37'2 4.0
2018-Apr-10 12:30N 46°12' W 124°34'1 1.0
2018-Apr-10 11:57N 46°12' W 124°35'2 5.5
2018-Apr-10 11:30N 46°11' W 124°38'1 2.2
2018-Apr-10 11:00N 46°12' W 124°37'0 0.5
2018-Apr-10 10:31N 46°12' W 124°37'2 3.1
2018-Apr-10 09:55N 46°12' W 124°35'1 3.6
2018-Apr-10 09:30N 46°12' W 124°32'4 7.2
2018-Apr-10 09:01N 46°13' W 124°38'2 3.4
2018-Apr-10 08:30N 46°12' W 124°35'4 7.7
2018-Apr-10 08:00N 46°13' W 124°30'5 9.6
2018-Apr-10 07:30N 46°13' W 124°23'4 7.7
2018-Apr-10 07:00N 46°13' W 124°17'5 9.2
2018-Apr-10 06:30N 46°13' W 124°11'5 9.7
2018-Apr-10 06:00N 46°16' W 124°04'5 9.6
2018-Apr-10 05:30N 46°14' W 123°58'4 7.3
2018-Apr-10 04:56N 46°10' W 123°55'0 0.0
2018-Apr-10 04:30N 46°10' W 123°55'0 0.0
2018-Apr-10 03:54N 46°10' W 123°55'0 0.0
2018-Apr-10 03:30N 46°10' W 123°55'0 0.0
2018-Apr-10 03:00N 46°10' W 123°55'0 0.0
2018-Apr-10 02:31N 46°10' W 123°55'0 0.0
2018-Apr-10 02:00N 46°10' W 123°55'0 0.0
2018-Apr-10 01:30N 46°10' W 123°55'0 0.0
2018-Apr-10 01:00N 46°10' W 123°55'0 0.0
2018-Apr-10 00:31N 46°10' W 123°55'0 0.0
2018-Apr-10 00:01N 46°10' W 123°55'0 0.0
2018-Apr-09 23:30N 46°10' W 123°55'0 0.0
2018-Apr-09 23:00N 46°10' W 123°55'0 0.0
2018-Apr-09 22:30N 46°10' W 123°55'0 0.0
2018-Apr-09 22:00N 46°10' W 123°55'0 0.0
2018-Apr-09 21:30N 46°10' W 123°55'0 0.0
2018-Apr-09 21:00N 46°10' W 123°55'0 0.0
2018-Apr-09 20:30N 46°10' W 123°55'0 0.0
2018-Apr-09 20:00N 46°10' W 123°55'0 0.0
2018-Apr-09 19:17N 46°10' W 123°55'0 0.0
2018-Apr-09 19:00N 46°10' W 123°55'0 0.0
2018-Apr-09 18:30N 46°10' W 123°55'0 0.0
2018-Apr-09 17:48N 46°10' W 123°55'0 0.0
2018-Apr-09 17:16N 46°10' W 123°55'0 0.0
2018-Apr-09 16:52N 46°10' W 123°55'0 0.0
2018-Apr-09 16:30N 46°10' W 123°55'0 0.0
2018-Apr-09 16:00N 46°10' W 123°55'0 0.0
2018-Apr-09 15:31N 46°10' W 123°55'0 0.0
2018-Apr-09 15:00N 46°10' W 123°55'0 0.0
2018-Apr-09 14:31N 46°10' W 123°55'0 0.0
2018-Apr-09 14:00N 46°10' W 123°55'0 0.0
2018-Apr-09 13:30N 46°10' W 123°55'0 0.0
2018-Apr-09 13:01N 46°10' W 123°55'0 0.0
2018-Apr-09 12:19N 46°10' W 123°55'0 0.0
2018-Apr-09 11:44N 46°10' W 123°55'0 0.0
2018-Apr-09 11:31N 46°10' W 123°55'0 0.0
2018-Apr-09 10:50N 46°10' W 123°55'0 0.0
2018-Apr-09 10:31N 46°10' W 123°55'0 0.0
2018-Apr-09 10:00N 46°10' W 123°55'0 0.0
2018-Apr-09 09:30N 46°10' W 123°55'0 0.0
2018-Apr-09 09:00N 46°10' W 123°55'0 0.0
2018-Apr-09 08:31N 46°10' W 123°55'0 0.0
2018-Apr-09 08:01N 46°10' W 123°55'0 0.0
2018-Apr-09 07:30N 46°10' W 123°55'0 0.0
2018-Apr-09 06:55N 46°10' W 123°55'0 0.0
2018-Apr-09 06:30N 46°10' W 123°55'0 0.0
2018-Apr-09 06:00N 46°10' W 123°55'0 0.0
2018-Apr-09 05:30N 46°10' W 123°55'0 0.0
2018-Apr-09 05:01N 46°10' W 123°55'0 0.0
2018-Apr-09 04:31N 46°10' W 123°55'0 0.0
2018-Apr-09 04:00N 46°10' W 123°55'0 0.0
2018-Apr-09 03:30N 46°10' W 123°55'0 0.0
2018-Apr-09 03:00N 46°10' W 123°55'0 0.0
2018-Apr-09 02:30N 46°10' W 123°55'0 0.0
2018-Apr-09 02:00N 46°10' W 123°55'0 0.0
2018-Apr-09 01:30N 46°10' W 123°55'0 0.0
2018-Apr-09 01:00N 46°10' W 123°55'0 0.0
2018-Apr-09 00:30N 46°10' W 123°55'0 0.0
2018-Apr-09 00:00N 46°10' W 123°55'0 0.0
2018-Apr-08 23:30N 46°10' W 123°55'0 0.0
2018-Apr-08 23:01N 46°10' W 123°55'0 0.0
2018-Apr-08 22:30N 46°10' W 123°55'0 0.0
2018-Apr-08 21:50N 46°10' W 123°55'0 0.0
2018-Apr-08 21:28N 46°10' W 123°55'0 0.0
2018-Apr-08 21:00N 46°10' W 123°55'0 0.0
2018-Apr-08 20:30N 46°10' W 123°55'0 0.0
2018-Apr-08 19:55N 46°10' W 123°55'0 0.0
2018-Apr-08 19:31N 46°10' W 123°55'0 0.0
2018-Apr-08 19:00N 46°10' W 123°55'0 0.0
2018-Apr-08 18:30N 46°10' W 123°55'0 0.0
2018-Apr-08 18:01N 46°10' W 123°55'0 0.0
2018-Apr-08 17:30N 46°10' W 123°55'0 0.0
2018-Apr-08 17:00N 46°10' W 123°55'0 0.0
2018-Apr-08 15:55N 46°10' W 123°55'0 0.1
2018-Apr-08 15:31N 46°10' W 123°55'0 0.0
2018-Apr-08 15:01N 46°10' W 123°55'0 0.1
2018-Apr-08 14:31N 46°10' W 123°55'0 0.0
2018-Apr-08 14:00N 46°10' W 123°55'0 0.0
2018-Apr-08 13:30N 46°10' W 123°55'0 0.0
2018-Apr-08 13:00N 46°10' W 123°55'0 0.0
2018-Apr-08 12:30N 46°10' W 123°55'0 0.0
2018-Apr-08 12:01N 46°10' W 123°55'0 0.0
2018-Apr-08 11:30N 46°10' W 123°55'0 0.0
2018-Apr-08 11:01N 46°10' W 123°55'0 0.0
2018-Apr-08 10:30N 46°10' W 123°55'0 0.0
2018-Apr-08 10:00N 46°10' W 123°55'0 0.0
2018-Apr-08 09:30N 46°10' W 123°55'0 0.0
2018-Apr-08 09:00N 46°10' W 123°55'0 0.0
2018-Apr-08 08:30N 46°10' W 123°55'0 0.0
2018-Apr-08 08:00N 46°10' W 123°55'  

Dump ship's entire track history